sensor_id;sensor_type;location;lat;lon;timestamp;temperature;humidity
2489;DHT22;1255;48.716;9.124;2023-08-06T00:00:30;15.00;99.90
2489;DHT22;1255;48.716;9.124;2023-08-06T00:02:56;15.00;99.90
2489;DHT22;1255;48.716;9.124;2023-08-06T00:05:23;14.90;99.90
2489;DHT22;1255;48.716;9.124;2023-08-06T00:07:51;14.90;99.90
2489;DHT22;1255;48.716;9.124;2023-08-06T00:10:18;14.90;99.90
2489;DHT22;1255;48.716;9.124;2023-08-06T00:12:45;14.90;99.90
2489;DHT22;1255;48.716;9.124;2023-08-06T00:15:12;14.80;99.90
2489;DHT22;1255;48.716;9.124;2023-08-06T00:17:38;14.70;99.90
2489;DHT22;1255;48.716;9.124;2023-08-06T00:20:07;14.70;99.90
2489;DHT22;1255;48.716;9.124;2023-08-06T00:22:34;14.60;99.90
2489;DHT22;1255;48.716;9.124;2023-08-06T00:25:03;14.60;99.90
2489;DHT22;1255;48.716;9.124;2023-08-06T00:27:29;14.50;99.90
2489;DHT22;1255;48.716;9.124;2023-08-06T00:29:58;14.50;99.90
2489;DHT22;1255;48.716;9.124;2023-08-06T00:32:24;14.40;99.90
2489;DHT22;1255;48.716;9.124;2023-08-06T00:34:51;14.40;99.90
2489;DHT22;1255;48.716;9.124;2023-08-06T00:37:18;14.40;99.90
2489;DHT22;1255;48.716;9.124;2023-08-06T00:39:45;14.40;99.90
2489;DHT22;1255;48.716;9.124;2023-08-06T00:42:13;14.30;99.90
2489;DHT22;1255;48.716;9.124;2023-08-06T00:44:39;14.30;99.90
2489;DHT22;1255;48.716;9.124;2023-08-06T00:47:07;14.30;99.90
2489;DHT22;1255;48.716;9.124;2023-08-06T00:49:35;14.30;99.90
2489;DHT22;1255;48.716;9.124;2023-08-06T00:52:03;14.30;99.90
2489;DHT22;1255;48.716;9.124;2023-08-06T00:54:30;14.30;99.90
2489;DHT22;1255;48.716;9.124;2023-08-06T00:56:58;14.20;99.90
2489;DHT22;1255;48.716;9.124;2023-08-06T00:59:27;14.20;99.90
2489;DHT22;1255;48.716;9.124;2023-08-06T01:01:54;14.20;99.90
2489;DHT22;1255;48.716;9.124;2023-08-06T01:04:22;14.10;99.90
2489;DHT22;1255;48.716;9.124;2023-08-06T01:06:59;14.10;99.90
2489;DHT22;1255;48.716;9.124;2023-08-06T01:09:35;14.00;99.90
2489;DHT22;1255;48.716;9.124;2023-08-06T01:12:09;14.00;99.90
2489;DHT22;1255;48.716;9.124;2023-08-06T01:14:45;13.90;99.90
2489;DHT22;1255;48.716;9.124;2023-08-06T01:17:14;13.90;99.90
2489;DHT22;1255;48.716;9.124;2023-08-06T01:19:41;13.90;99.90
2489;DHT22;1255;48.716;9.124;2023-08-06T01:22:09;13.80;99.90
2489;DHT22;1255;48.716;9.124;2023-08-06T01:24:36;13.80;99.90
2489;DHT22;1255;48.716;9.124;2023-08-06T01:27:08;13.70;99.90
2489;DHT22;1255;48.716;9.124;2023-08-06T01:29:41;13.70;99.90
2489;DHT22;1255;48.716;9.124;2023-08-06T01:32:12;13.70;99.90
2489;DHT22;1255;48.716;9.124;2023-08-06T01:34:41;13.70;99.90
2489;DHT22;1255;48.716;9.124;2023-08-06T01:37:11;13.60;99.90
2489;DHT22;1255;48.716;9.124;2023-08-06T01:39:40;13.60;99.90
2489;DHT22;1255;48.716;9.124;2023-08-06T01:42:08;13.60;99.90
2489;DHT22;1255;48.716;9.124;2023-08-06T01:44:35;13.60;99.90
2489;DHT22;1255;48.716;9.124;2023-08-06T01:47:02;13.60;99.90
2489;DHT22;1255;48.716;9.124;2023-08-06T01:49:29;13.50;99.90
2489;DHT22;1255;48.716;9.124;2023-08-06T01:51:55;13.50;99.90
2489;DHT22;1255;48.716;9.124;2023-08-06T01:54:23;13.40;99.90
2489;DHT22;1255;48.716;9.124;2023-08-06T01:56:50;13.40;99.90
2489;DHT22;1255;48.716;9.124;2023-08-06T01:59:17;13.40;99.90
2489;DHT22;1255;48.716;9.124;2023-08-06T02:01:43;13.40;99.90
2489;DHT22;1255;48.716;9.124;2023-08-06T02:04:11;13.30;99.90
2489;DHT22;1255;48.716;9.124;2023-08-06T02:09:05;13.40;99.90
2489;DHT22;1255;48.716;9.124;2023-08-06T02:11:33;13.40;99.90
2489;DHT22;1255;48.716;9.124;2023-08-06T02:14:00;13.40;99.90
2489;DHT22;1255;48.716;9.124;2023-08-06T02:16:27;13.30;99.90
2489;DHT22;1255;48.716;9.124;2023-08-06T02:18:53;13.30;99.90
2489;DHT22;1255;48.716;9.124;2023-08-06T02:21:20;13.30;99.90
2489;DHT22;1255;48.716;9.124;2023-08-06T02:23:47;13.30;99.90
2489;DHT22;1255;48.716;9.124;2023-08-06T02:26:13;13.30;99.90
2489;DHT22;1255;48.716;9.124;2023-08-06T02:28:41;13.30;99.90
2489;DHT22;1255;48.716;9.124;2023-08-06T02:31:08;13.30;99.90
2489;DHT22;1255;48.716;9.124;2023-08-06T02:33:35;13.30;99.90
2489;DHT22;1255;48.716;9.124;2023-08-06T02:36:03;13.20;99.90
2489;DHT22;1255;48.716;9.124;2023-08-06T02:38:30;13.20;99.90
2489;DHT22;1255;48.716;9.124;2023-08-06T02:40:57;13.20;99.90
2489;DHT22;1255;48.716;9.124;2023-08-06T02:43:23;13.20;99.90
2489;DHT22;1255;48.716;9.124;2023-08-06T02:45:51;13.30;99.90
2489;DHT22;1255;48.716;9.124;2023-08-06T02:48:18;13.20;99.90
2489;DHT22;1255;48.716;9.124;2023-08-06T02:50:45;13.30;99.90
2489;DHT22;1255;48.716;9.124;2023-08-06T02:53:11;13.20;99.90
2489;DHT22;1255;48.716;9.124;2023-08-06T02:55:38;13.20;99.90
2489;DHT22;1255;48.716;9.124;2023-08-06T02:58:11;13.20;99.90
2489;DHT22;1255;48.716;9.124;2023-08-06T03:00:38;13.20;99.90
2489;DHT22;1255;48.716;9.124;2023-08-06T03:03:06;13.10;99.90
2489;DHT22;1255;48.716;9.124;2023-08-06T03:05:33;13.10;99.90
2489;DHT22;1255;48.716;9.124;2023-08-06T03:08:00;13.10;99.90
2489;DHT22;1255;48.716;9.124;2023-08-06T03:10:26;13.20;99.90
2489;DHT22;1255;48.716;9.124;2023-08-06T03:12:53;13.20;99.90
2489;DHT22;1255;48.716;9.124;2023-08-06T03:15:20;13.20;99.90
2489;DHT22;1255;48.716;9.124;2023-08-06T03:17:46;13.20;99.90
2489;DHT22;1255;48.716;9.124;2023-08-06T03:20:14;13.20;99.90
2489;DHT22;1255;48.716;9.124;2023-08-06T03:22:41;13.20;99.90
2489;DHT22;1255;48.716;9.124;2023-08-06T03:25:08;13.20;99.90
2489;DHT22;1255;48.716;9.124;2023-08-06T03:27:34;13.20;99.90
2489;DHT22;1255;48.716;9.124;2023-08-06T03:30:01;13.20;99.90
2489;DHT22;1255;48.716;9.124;2023-08-06T03:32:28;13.30;99.90
2489;DHT22;1255;48.716;9.124;2023-08-06T03:34:55;13.30;99.90
2489;DHT22;1255;48.716;9.124;2023-08-06T03:37:23;13.20;99.90
2489;DHT22;1255;48.716;9.124;2023-08-06T03:39:49;13.20;99.90
2489;DHT22;1255;48.716;9.124;2023-08-06T03:42:16;13.30;99.90
2489;DHT22;1255;48.716;9.124;2023-08-06T03:44:43;13.30;99.90
2489;DHT22;1255;48.716;9.124;2023-08-06T03:47:09;13.30;99.90
2489;DHT22;1255;48.716;9.124;2023-08-06T03:49:36;13.30;99.90
2489;DHT22;1255;48.716;9.124;2023-08-06T03:52:03;13.30;99.90
2489;DHT22;1255;48.716;9.124;2023-08-06T03:54:32;13.30;99.90
2489;DHT22;1255;48.716;9.124;2023-08-06T03:56:58;13.40;99.90
2489;DHT22;1255;48.716;9.124;2023-08-06T03:59:25;13.40;99.90
2489;DHT22;1255;48.716;9.124;2023-08-06T04:01:52;13.30;99.90
2489;DHT22;1255;48.716;9.124;2023-08-06T04:04:18;13.40;99.90
2489;DHT22;1255;48.716;9.124;2023-08-06T04:06:45;13.40;99.90
2489;DHT22;1255;48.716;9.124;2023-08-06T04:09:12;13.40;99.90
2489;DHT22;1255;48.716;9.124;2023-08-06T04:11:41;13.40;99.90
2489;DHT22;1255;48.716;9.124;2023-08-06T04:14:07;13.50;99.90
2489;DHT22;1255;48.716;9.124;2023-08-06T04:16:34;13.50;99.90
2489;DHT22;1255;48.716;9.124;2023-08-06T04:19:01;13.40;99.90
2489;DHT22;1255;48.716;9.124;2023-08-06T04:21:27;13.40;99.90
2489;DHT22;1255;48.716;9.124;2023-08-06T04:23:54;13.50;99.90
2489;DHT22;1255;48.716;9.124;2023-08-06T04:26:21;13.50;99.90
2489;DHT22;1255;48.716;9.124;2023-08-06T04:28:49;13.50;99.90
2489;DHT22;1255;48.716;9.124;2023-08-06T04:31:15;13.50;99.90
2489;DHT22;1255;48.716;9.124;2023-08-06T04:33:42;13.60;99.90
2489;DHT22;1255;48.716;9.124;2023-08-06T04:36:09;13.60;99.90
2489;DHT22;1255;48.716;9.124;2023-08-06T04:38:36;13.60;99.90
2489;DHT22;1255;48.716;9.124;2023-08-06T04:41:04;13.60;99.90
2489;DHT22;1255;48.716;9.124;2023-08-06T04:43:30;13.60;99.90
2489;DHT22;1255;48.716;9.124;2023-08-06T04:46:01;13.60;99.90
2489;DHT22;1255;48.716;9.124;2023-08-06T04:48:28;13.60;99.90
2489;DHT22;1255;48.716;9.124;2023-08-06T04:50:54;13.60;99.90
2489;DHT22;1255;48.716;9.124;2023-08-06T04:53:21;13.60;99.90
2489;DHT22;1255;48.716;9.124;2023-08-06T04:55:48;13.60;99.90
2489;DHT22;1255;48.716;9.124;2023-08-06T04:58:15;13.70;99.90
2489;DHT22;1255;48.716;9.124;2023-08-06T05:00:42;13.60;99.90
2489;DHT22;1255;48.716;9.124;2023-08-06T05:03:10;13.70;99.90
2489;DHT22;1255;48.716;9.124;2023-08-06T05:05:36;13.80;99.90
2489;DHT22;1255;48.716;9.124;2023-08-06T05:08:03;13.80;99.90
2489;DHT22;1255;48.716;9.124;2023-08-06T05:10:30;13.80;99.90
2489;DHT22;1255;48.716;9.124;2023-08-06T05:12:57;13.80;99.90
2489;DHT22;1255;48.716;9.124;2023-08-06T05:15:23;13.80;99.90
2489;DHT22;1255;48.716;9.124;2023-08-06T05:17:50;13.80;99.90
2489;DHT22;1255;48.716;9.124;2023-08-06T05:20:19;13.80;99.90
2489;DHT22;1255;48.716;9.124;2023-08-06T05:22:46;13.80;99.90
2489;DHT22;1255;48.716;9.124;2023-08-06T05:25:13;13.70;99.90
2489;DHT22;1255;48.716;9.124;2023-08-06T05:27:40;13.70;99.90
2489;DHT22;1255;48.716;9.124;2023-08-06T05:30:08;13.70;99.90
2489;DHT22;1255;48.716;9.124;2023-08-06T05:32:35;13.80;99.90
2489;DHT22;1255;48.716;9.124;2023-08-06T05:35:02;13.90;99.90
2489;DHT22;1255;48.716;9.124;2023-08-06T05:37:30;14.00;99.90
2489;DHT22;1255;48.716;9.124;2023-08-06T05:39:57;14.00;99.90
2489;DHT22;1255;48.716;9.124;2023-08-06T05:42:24;14.00;99.90
2489;DHT22;1255;48.716;9.124;2023-08-06T05:44:50;14.00;99.90
2489;DHT22;1255;48.716;9.124;2023-08-06T05:47:17;14.10;99.90
2489;DHT22;1255;48.716;9.124;2023-08-06T05:49:45;14.10;99.90
2489;DHT22;1255;48.716;9.124;2023-08-06T05:52:11;14.10;99.90
2489;DHT22;1255;48.716;9.124;2023-08-06T05:54:39;14.10;99.90
2489;DHT22;1255;48.716;9.124;2023-08-06T05:57:07;14.10;99.90
2489;DHT22;1255;48.716;9.124;2023-08-06T05:59:33;14.10;99.90
2489;DHT22;1255;48.716;9.124;2023-08-06T06:02:00;14.10;99.90
2489;DHT22;1255;48.716;9.124;2023-08-06T06:04:28;14.10;99.90
2489;DHT22;1255;48.716;9.124;2023-08-06T06:06:54;14.20;99.90
2489;DHT22;1255;48.716;9.124;2023-08-06T06:09:21;14.20;99.90
2489;DHT22;1255;48.716;9.124;2023-08-06T06:11:49;14.10;99.90
2489;DHT22;1255;48.716;9.124;2023-08-06T06:14:16;14.20;99.90
2489;DHT22;1255;48.716;9.124;2023-08-06T06:16:43;14.20;99.90
2489;DHT22;1255;48.716;9.124;2023-08-06T06:19:09;14.30;99.90
2489;DHT22;1255;48.716;9.124;2023-08-06T06:21:36;14.30;99.90
2489;DHT22;1255;48.716;9.124;2023-08-06T06:24:04;14.20;99.90
2489;DHT22;1255;48.716;9.124;2023-08-06T06:26:31;14.20;99.90
2489;DHT22;1255;48.716;9.124;2023-08-06T06:28:59;14.10;99.90
2489;DHT22;1255;48.716;9.124;2023-08-06T06:31:26;14.10;99.90
2489;DHT22;1255;48.716;9.124;2023-08-06T06:33:52;14.10;99.90
2489;DHT22;1255;48.716;9.124;2023-08-06T06:36:20;14.10;99.90
2489;DHT22;1255;48.716;9.124;2023-08-06T06:38:46;14.10;99.90
2489;DHT22;1255;48.716;9.124;2023-08-06T06:41:14;14.20;99.90
2489;DHT22;1255;48.716;9.124;2023-08-06T06:43:41;14.20;99.90
2489;DHT22;1255;48.716;9.124;2023-08-06T06:46:09;14.10;99.90
2489;DHT22;1255;48.716;9.124;2023-08-06T06:48:36;14.10;99.90
2489;DHT22;1255;48.716;9.124;2023-08-06T06:51:03;14.10;99.90
2489;DHT22;1255;48.716;9.124;2023-08-06T06:53:29;14.10;99.90
2489;DHT22;1255;48.716;9.124;2023-08-06T06:56:00;14.20;99.90
2489;DHT22;1255;48.716;9.124;2023-08-06T06:58:27;14.10;99.90
2489;DHT22;1255;48.716;9.124;2023-08-06T07:00:54;14.10;99.90
2489;DHT22;1255;48.716;9.124;2023-08-06T07:03:22;14.10;99.90
2489;DHT22;1255;48.716;9.124;2023-08-06T07:05:49;14.10;99.90
2489;DHT22;1255;48.716;9.124;2023-08-06T07:08:16;14.10;99.90
2489;DHT22;1255;48.716;9.124;2023-08-06T07:10:43;14.00;99.90
2489;DHT22;1255;48.716;9.124;2023-08-06T07:13:10;14.00;99.90
2489;DHT22;1255;48.716;9.124;2023-08-06T07:15:40;14.00;99.90
2489;DHT22;1255;48.716;9.124;2023-08-06T07:18:07;13.90;99.90
2489;DHT22;1255;48.716;9.124;2023-08-06T07:20:35;13.90;99.90
2489;DHT22;1255;48.716;9.124;2023-08-06T07:23:01;13.90;99.90
2489;DHT22;1255;48.716;9.124;2023-08-06T07:25:28;13.90;99.90
2489;DHT22;1255;48.716;9.124;2023-08-06T07:27:55;13.90;99.90
2489;DHT22;1255;48.716;9.124;2023-08-06T07:30:22;13.90;99.90
2489;DHT22;1255;48.716;9.124;2023-08-06T07:32:48;14.00;99.90
2489;DHT22;1255;48.716;9.124;2023-08-06T07:35:15;14.00;99.90
2489;DHT22;1255;48.716;9.124;2023-08-06T07:37:43;14.00;99.90
2489;DHT22;1255;48.716;9.124;2023-08-06T07:40:11;14.00;99.90
2489;DHT22;1255;48.716;9.124;2023-08-06T07:42:37;14.00;99.90
2489;DHT22;1255;48.716;9.124;2023-08-06T07:45:05;14.10;99.90
2489;DHT22;1255;48.716;9.124;2023-08-06T07:47:32;14.10;99.90
2489;DHT22;1255;48.716;9.124;2023-08-06T07:49:59;14.20;99.90
2489;DHT22;1255;48.716;9.124;2023-08-06T07:52:26;14.30;99.90
2489;DHT22;1255;48.716;9.124;2023-08-06T07:54:54;14.30;99.90
2489;DHT22;1255;48.716;9.124;2023-08-06T07:57:20;14.40;99.90
2489;DHT22;1255;48.716;9.124;2023-08-06T07:59:47;14.30;99.90
2489;DHT22;1255;48.716;9.124;2023-08-06T08:02:14;14.30;99.90
2489;DHT22;1255;48.716;9.124;2023-08-06T08:04:40;14.40;99.90
2489;DHT22;1255;48.716;9.124;2023-08-06T08:07:09;14.40;99.90
2489;DHT22;1255;48.716;9.124;2023-08-06T08:09:36;14.50;99.90
2489;DHT22;1255;48.716;9.124;2023-08-06T08:12:04;14.60;99.90
2489;DHT22;1255;48.716;9.124;2023-08-06T08:14:31;14.60;99.90
2489;DHT22;1255;48.716;9.124;2023-08-06T08:17:01;14.60;99.90
2489;DHT22;1255;48.716;9.124;2023-08-06T08:19:28;14.60;99.90
2489;DHT22;1255;48.716;9.124;2023-08-06T08:21:54;14.70;99.90
2489;DHT22;1255;48.716;9.124;2023-08-06T08:24:21;14.70;99.90
2489;DHT22;1255;48.716;9.124;2023-08-06T08:26:49;14.70;99.90
2489;DHT22;1255;48.716;9.124;2023-08-06T08:29:17;14.60;99.90
2489;DHT22;1255;48.716;9.124;2023-08-06T08:31:44;14.60;99.90
2489;DHT22;1255;48.716;9.124;2023-08-06T08:34:10;14.50;99.90
2489;DHT22;1255;48.716;9.124;2023-08-06T08:36:37;14.60;99.90
2489;DHT22;1255;48.716;9.124;2023-08-06T08:39:04;14.50;99.90
2489;DHT22;1255;48.716;9.124;2023-08-06T08:41:31;14.50;99.90
2489;DHT22;1255;48.716;9.124;2023-08-06T08:43:59;14.40;99.90
2489;DHT22;1255;48.716;9.124;2023-08-06T08:46:29;14.50;99.90
2489;DHT22;1255;48.716;9.124;2023-08-06T08:48:58;14.50;99.90
2489;DHT22;1255;48.716;9.124;2023-08-06T08:51:26;14.60;99.90
2489;DHT22;1255;48.716;9.124;2023-08-06T08:53:53;14.60;99.90
2489;DHT22;1255;48.716;9.124;2023-08-06T08:56:22;14.60;99.90
2489;DHT22;1255;48.716;9.124;2023-08-06T08:58:48;14.60;99.90
2489;DHT22;1255;48.716;9.124;2023-08-06T09:01:15;14.50;99.90
2489;DHT22;1255;48.716;9.124;2023-08-06T09:03:44;14.60;99.90
2489;DHT22;1255;48.716;9.124;2023-08-06T09:06:11;14.50;99.90
2489;DHT22;1255;48.716;9.124;2023-08-06T09:08:43;14.60;99.90
2489;DHT22;1255;48.716;9.124;2023-08-06T09:11:13;14.70;99.90
2489;DHT22;1255;48.716;9.124;2023-08-06T09:13:40;14.70;99.90
2489;DHT22;1255;48.716;9.124;2023-08-06T09:16:07;14.80;99.90
2489;DHT22;1255;48.716;9.124;2023-08-06T09:18:34;14.80;99.90
2489;DHT22;1255;48.716;9.124;2023-08-06T09:21:02;14.90;99.90
2489;DHT22;1255;48.716;9.124;2023-08-06T09:23:30;15.00;99.90
2489;DHT22;1255;48.716;9.124;2023-08-06T09:25:57;15.00;99.90
2489;DHT22;1255;48.716;9.124;2023-08-06T09:28:24;15.10;99.90
2489;DHT22;1255;48.716;9.124;2023-08-06T09:30:52;15.10;99.90
2489;DHT22;1255;48.716;9.124;2023-08-06T09:33:22;15.20;99.90
2489;DHT22;1255;48.716;9.124;2023-08-06T09:35:49;15.20;99.90
2489;DHT22;1255;48.716;9.124;2023-08-06T09:38:17;15.30;99.90
2489;DHT22;1255;48.716;9.124;2023-08-06T09:40:44;15.30;99.90
2489;DHT22;1255;48.716;9.124;2023-08-06T09:43:11;15.30;99.90
2489;DHT22;1255;48.716;9.124;2023-08-06T09:45:39;15.30;99.90
2489;DHT22;1255;48.716;9.124;2023-08-06T09:48:07;15.20;99.90
2489;DHT22;1255;48.716;9.124;2023-08-06T09:50:35;15.20;99.90
2489;DHT22;1255;48.716;9.124;2023-08-06T09:53:03;15.20;99.90
2489;DHT22;1255;48.716;9.124;2023-08-06T09:55:32;15.30;99.90
2489;DHT22;1255;48.716;9.124;2023-08-06T09:57:59;15.20;99.90
2489;DHT22;1255;48.716;9.124;2023-08-06T10:00:26;15.30;99.90
2489;DHT22;1255;48.716;9.124;2023-08-06T10:02:54;15.20;99.90
2489;DHT22;1255;48.716;9.124;2023-08-06T10:05:22;15.10;99.90
2489;DHT22;1255;48.716;9.124;2023-08-06T10:07:49;15.10;99.90
2489;DHT22;1255;48.716;9.124;2023-08-06T10:10:17;15.10;99.90
2489;DHT22;1255;48.716;9.124;2023-08-06T10:12:49;15.20;99.90
2489;DHT22;1255;48.716;9.124;2023-08-06T10:15:19;15.10;99.90
2489;DHT22;1255;48.716;9.124;2023-08-06T10:17:50;15.10;99.90
2489;DHT22;1255;48.716;9.124;2023-08-06T10:20:18;15.00;99.90
2489;DHT22;1255;48.716;9.124;2023-08-06T10:22:59;15.10;99.90
2489;DHT22;1255;48.716;9.124;2023-08-06T10:25:31;15.10;99.90
2489;DHT22;1255;48.716;9.124;2023-08-06T10:28:01;15.10;99.90
2489;DHT22;1255;48.716;9.124;2023-08-06T10:30:34;15.10;99.90
2489;DHT22;1255;48.716;9.124;2023-08-06T10:33:07;15.10;99.90
2489;DHT22;1255;48.716;9.124;2023-08-06T10:35:37;15.00;99.90
2489;DHT22;1255;48.716;9.124;2023-08-06T10:38:05;15.10;99.90
2489;DHT22;1255;48.716;9.124;2023-08-06T10:40:34;15.00;99.90
2489;DHT22;1255;48.716;9.124;2023-08-06T10:43:04;15.10;99.90
2489;DHT22;1255;48.716;9.124;2023-08-06T10:45:37;15.10;99.90
2489;DHT22;1255;48.716;9.124;2023-08-06T10:48:04;15.10;99.90
2489;DHT22;1255;48.716;9.124;2023-08-06T10:50:32;15.10;99.90
2489;DHT22;1255;48.716;9.124;2023-08-06T10:53:04;15.20;99.90
2489;DHT22;1255;48.716;9.124;2023-08-06T10:55:32;15.30;99.90
2489;DHT22;1255;48.716;9.124;2023-08-06T10:57:59;15.30;99.90
2489;DHT22;1255;48.716;9.124;2023-08-06T11:00:34;15.30;99.90
2489;DHT22;1255;48.716;9.124;2023-08-06T11:03:03;15.40;99.90
2489;DHT22;1255;48.716;9.124;2023-08-06T11:05:30;15.50;99.90
2489;DHT22;1255;48.716;9.124;2023-08-06T11:07:57;15.50;99.90
2489;DHT22;1255;48.716;9.124;2023-08-06T11:10:24;15.50;99.90
2489;DHT22;1255;48.716;9.124;2023-08-06T11:12:51;15.50;99.90
2489;DHT22;1255;48.716;9.124;2023-08-06T11:15:20;15.40;99.90
2489;DHT22;1255;48.716;9.124;2023-08-06T11:17:48;15.40;99.90
2489;DHT22;1255;48.716;9.124;2023-08-06T11:20:15;15.30;99.90
2489;DHT22;1255;48.716;9.124;2023-08-06T11:22:42;15.30;99.90
2489;DHT22;1255;48.716;9.124;2023-08-06T11:25:08;15.30;99.90
2489;DHT22;1255;48.716;9.124;2023-08-06T11:27:35;15.20;99.90
2489;DHT22;1255;48.716;9.124;2023-08-06T11:30:02;15.00;99.90
2489;DHT22;1255;48.716;9.124;2023-08-06T11:32:29;15.00;99.90
2489;DHT22;1255;48.716;9.124;2023-08-06T11:34:57;15.00;99.90
2489;DHT22;1255;48.716;9.124;2023-08-06T11:37:24;15.10;99.90
2489;DHT22;1255;48.716;9.124;2023-08-06T11:39:51;15.10;99.90
2489;DHT22;1255;48.716;9.124;2023-08-06T11:42:18;15.00;99.90
2489;DHT22;1255;48.716;9.124;2023-08-06T11:44:45;14.90;99.90
2489;DHT22;1255;48.716;9.124;2023-08-06T11:47:14;14.80;99.90
2489;DHT22;1255;48.716;9.124;2023-08-06T11:49:43;14.80;99.90
2489;DHT22;1255;48.716;9.124;2023-08-06T11:52:14;14.80;99.90
2489;DHT22;1255;48.716;9.124;2023-08-06T11:54:41;14.80;99.90
2489;DHT22;1255;48.716;9.124;2023-08-06T11:57:08;14.60;99.90
2489;DHT22;1255;48.716;9.124;2023-08-06T11:59:37;14.50;99.90
2489;DHT22;1255;48.716;9.124;2023-08-06T12:02:04;14.50;99.90
2489;DHT22;1255;48.716;9.124;2023-08-06T12:04:32;14.40;99.90
2489;DHT22;1255;48.716;9.124;2023-08-06T12:07:05;14.40;99.90
2489;DHT22;1255;48.716;9.124;2023-08-06T12:09:34;14.40;99.90
2489;DHT22;1255;48.716;9.124;2023-08-06T12:12:01;14.40;99.90
2489;DHT22;1255;48.716;9.124;2023-08-06T12:14:28;14.50;99.90
2489;DHT22;1255;48.716;9.124;2023-08-06T12:16:55;14.60;99.90
2489;DHT22;1255;48.716;9.124;2023-08-06T12:19:22;14.70;99.90
2489;DHT22;1255;48.716;9.124;2023-08-06T12:21:48;14.80;99.90
2489;DHT22;1255;48.716;9.124;2023-08-06T12:24:15;14.80;99.90
2489;DHT22;1255;48.716;9.124;2023-08-06T12:26:43;14.70;99.90
2489;DHT22;1255;48.716;9.124;2023-08-06T12:29:10;14.70;99.90
2489;DHT22;1255;48.716;9.124;2023-08-06T12:31:37;14.70;99.90
2489;DHT22;1255;48.716;9.124;2023-08-06T12:34:04;14.70;99.90
2489;DHT22;1255;48.716;9.124;2023-08-06T12:36:31;14.70;99.90
2489;DHT22;1255;48.716;9.124;2023-08-06T12:38:58;14.80;99.90
2489;DHT22;1255;48.716;9.124;2023-08-06T12:41:24;14.90;99.90
2489;DHT22;1255;48.716;9.124;2023-08-06T12:43:52;15.10;99.90
2489;DHT22;1255;48.716;9.124;2023-08-06T12:46:19;15.20;99.90
2489;DHT22;1255;48.716;9.124;2023-08-06T12:48:46;15.30;99.90
2489;DHT22;1255;48.716;9.124;2023-08-06T12:51:14;15.30;99.90
2489;DHT22;1255;48.716;9.124;2023-08-06T12:53:41;15.20;99.90
2489;DHT22;1255;48.716;9.124;2023-08-06T12:56:07;15.10;99.90
2489;DHT22;1255;48.716;9.124;2023-08-06T12:58:34;15.10;99.90
2489;DHT22;1255;48.716;9.124;2023-08-06T13:01:02;15.10;99.90
2489;DHT22;1255;48.716;9.124;2023-08-06T13:03:29;14.90;99.90
2489;DHT22;1255;48.716;9.124;2023-08-06T13:05:55;14.80;99.90
2489;DHT22;1255;48.716;9.124;2023-08-06T13:08:23;14.80;99.90
2489;DHT22;1255;48.716;9.124;2023-08-06T13:10:49;14.70;99.90
2489;DHT22;1255;48.716;9.124;2023-08-06T13:13:16;14.70;99.90
2489;DHT22;1255;48.716;9.124;2023-08-06T13:15:43;14.80;99.90
2489;DHT22;1255;48.716;9.124;2023-08-06T13:18:11;14.90;99.90
2489;DHT22;1255;48.716;9.124;2023-08-06T13:20:38;15.20;99.90
2489;DHT22;1255;48.716;9.124;2023-08-06T13:23:06;15.40;99.90
2489;DHT22;1255;48.716;9.124;2023-08-06T13:25:32;15.60;99.90
2489;DHT22;1255;48.716;9.124;2023-08-06T13:28:02;15.70;99.90
2489;DHT22;1255;48.716;9.124;2023-08-06T13:30:29;15.90;99.90
2489;DHT22;1255;48.716;9.124;2023-08-06T13:32:55;15.90;99.90
2489;DHT22;1255;48.716;9.124;2023-08-06T13:35:24;16.00;99.90
2489;DHT22;1255;48.716;9.124;2023-08-06T13:37:50;16.00;99.90
2489;DHT22;1255;48.716;9.124;2023-08-06T13:40:17;15.90;99.90
2489;DHT22;1255;48.716;9.124;2023-08-06T13:42:44;15.80;99.90
2489;DHT22;1255;48.716;9.124;2023-08-06T13:45:11;15.70;99.90
2489;DHT22;1255;48.716;9.124;2023-08-06T13:47:37;15.50;99.90
2489;DHT22;1255;48.716;9.124;2023-08-06T13:50:05;15.50;99.90
2489;DHT22;1255;48.716;9.124;2023-08-06T13:52:33;15.40;99.90
2489;DHT22;1255;48.716;9.124;2023-08-06T13:55:00;15.40;99.90
2489;DHT22;1255;48.716;9.124;2023-08-06T13:57:29;15.40;99.90
2489;DHT22;1255;48.716;9.124;2023-08-06T13:59:55;15.40;99.90
2489;DHT22;1255;48.716;9.124;2023-08-06T14:02:22;15.40;99.90
2489;DHT22;1255;48.716;9.124;2023-08-06T14:04:51;15.50;99.90
2489;DHT22;1255;48.716;9.124;2023-08-06T14:07:18;15.50;99.90
2489;DHT22;1255;48.716;9.124;2023-08-06T14:09:46;15.60;99.90
2489;DHT22;1255;48.716;9.124;2023-08-06T14:12:14;15.70;99.90
2489;DHT22;1255;48.716;9.124;2023-08-06T14:14:41;15.90;99.90
2489;DHT22;1255;48.716;9.124;2023-08-06T14:17:08;16.20;99.90
2489;DHT22;1255;48.716;9.124;2023-08-06T14:19:35;16.30;99.90
2489;DHT22;1255;48.716;9.124;2023-08-06T14:22:01;16.30;99.90
2489;DHT22;1255;48.716;9.124;2023-08-06T14:24:28;16.30;99.90
2489;DHT22;1255;48.716;9.124;2023-08-06T14:26:56;16.20;99.90
2489;DHT22;1255;48.716;9.124;2023-08-06T14:29:23;16.20;99.90
2489;DHT22;1255;48.716;9.124;2023-08-06T14:31:50;16.10;99.90
2489;DHT22;1255;48.716;9.124;2023-08-06T14:34:17;16.00;99.90
2489;DHT22;1255;48.716;9.124;2023-08-06T14:36:47;15.90;99.90
2489;DHT22;1255;48.716;9.124;2023-08-06T14:39:13;15.70;99.90
2489;DHT22;1255;48.716;9.124;2023-08-06T14:41:40;15.50;99.90
2489;DHT22;1255;48.716;9.124;2023-08-06T14:44:08;15.50;99.90
2489;DHT22;1255;48.716;9.124;2023-08-06T14:46:35;15.40;99.90
2489;DHT22;1255;48.716;9.124;2023-08-06T14:49:02;15.40;99.90
2489;DHT22;1255;48.716;9.124;2023-08-06T14:51:29;15.20;99.90
2489;DHT22;1255;48.716;9.124;2023-08-06T14:53:55;15.20;99.90
2489;DHT22;1255;48.716;9.124;2023-08-06T14:56:22;15.30;99.90
2489;DHT22;1255;48.716;9.124;2023-08-06T14:58:49;15.30;99.90
2489;DHT22;1255;48.716;9.124;2023-08-06T15:01:17;15.30;99.90
2489;DHT22;1255;48.716;9.124;2023-08-06T15:03:44;15.20;99.90
2489;DHT22;1255;48.716;9.124;2023-08-06T15:06:11;15.20;99.90
2489;DHT22;1255;48.716;9.124;2023-08-06T15:08:37;15.20;99.90
2489;DHT22;1255;48.716;9.124;2023-08-06T15:11:04;15.20;99.90
2489;DHT22;1255;48.716;9.124;2023-08-06T15:13:31;15.20;99.90
2489;DHT22;1255;48.716;9.124;2023-08-06T15:15:58;15.30;99.90
2489;DHT22;1255;48.716;9.124;2023-08-06T15:18:26;15.40;99.90
2489;DHT22;1255;48.716;9.124;2023-08-06T15:20:52;15.60;99.90
2489;DHT22;1255;48.716;9.124;2023-08-06T15:23:19;15.80;99.90
2489;DHT22;1255;48.716;9.124;2023-08-06T15:25:46;16.10;99.90
2489;DHT22;1255;48.716;9.124;2023-08-06T15:28:13;16.30;99.90
2489;DHT22;1255;48.716;9.124;2023-08-06T15:30:40;16.40;99.90
2489;DHT22;1255;48.716;9.124;2023-08-06T15:33:10;16.40;99.90
2489;DHT22;1255;48.716;9.124;2023-08-06T15:35:38;16.40;99.90
2489;DHT22;1255;48.716;9.124;2023-08-06T15:38:05;16.40;99.90
2489;DHT22;1255;48.716;9.124;2023-08-06T15:40:32;16.30;99.90
2489;DHT22;1255;48.716;9.124;2023-08-06T15:42:58;16.10;99.90
2489;DHT22;1255;48.716;9.124;2023-08-06T15:45:25;16.10;99.90
2489;DHT22;1255;48.716;9.124;2023-08-06T15:47:52;16.20;99.90
2489;DHT22;1255;48.716;9.124;2023-08-06T15:50:19;16.30;99.90
2489;DHT22;1255;48.716;9.124;2023-08-06T15:52:47;16.50;99.90
2489;DHT22;1255;48.716;9.124;2023-08-06T15:55:14;16.50;99.90
2489;DHT22;1255;48.716;9.124;2023-08-06T15:57:40;16.50;99.90
2489;DHT22;1255;48.716;9.124;2023-08-06T16:00:09;16.50;99.90
2489;DHT22;1255;48.716;9.124;2023-08-06T16:02:36;16.30;99.90
2489;DHT22;1255;48.716;9.124;2023-08-06T16:05:03;16.10;99.90